Time;durP1;ratioP1;P1;durP2;ratioP2;P2;SDS_P1;SDS_P2;PMS_P1;PMS_P2;Temp;Humidity;BMP_temperature;BMP_pressure;BME280_temperature;BME280_humidity;BME280_pressure;Samples;Min_cycle;Max_cycle;Signal;HPM_P1;HPM_P2
2021/03/24 00:02:03;;;;;;;13.95;9.48;;;;;;;-0.17;61.15;94294.66;1713467;82;21487;-52
2021/03/24 00:04:31;;;;;;;7.62;6.90;;;;;;;-0.02;60.78;94288.62;1716166;82;21239;-52
2021/03/24 00:07:00;;;;;;;7.53;6.83;;;;;;;0.04;60.74;94298.05;1728621;82;21100;-53
2021/03/24 00:09:28;;;;;;;7.05;5.95;;;;;;;0.21;60.37;94299.93;1729387;82;21624;-53
2021/03/24 00:11:57;;;;;;;8.05;7.12;;;;;;;0.33;59.75;94288.69;1741700;80;21077;-53
2021/03/24 00:14:25;;;;;;;11.55;7.37;;;;;;;0.32;60.01;94295.83;1754481;80;21119;-53
2021/03/24 00:16:54;;;;;;;23.20;10.43;;;;;;;0.28;59.83;94299.92;1761416;80;21211;-54
2021/03/24 00:19:24;;;;;;;27.40;18.40;;;;;;;0.36;59.34;94297.36;1741632;80;21141;-54
2021/03/24 00:21:54;;;;;;;11.10;9.38;;;;;;;0.42;58.81;94297.13;1767590;80;21147;-53
2021/03/24 00:24:22;;;;;;;9.15;8.00;;;;;;;0.47;58.61;94298.09;1755970;80;21126;-53
2021/03/24 00:26:50;;;;;;;10.32;7.55;;;;;;;0.57;58.33;94294.55;1763929;80;21513;-54
2021/03/24 00:29:18;;;;;;;12.23;8.73;;;;;;;0.65;58.04;94307.47;1750499;80;21235;-53
2021/03/24 00:31:47;;;;;;;8.28;7.45;;;;;;;0.64;58.41;94307.28;1747314;81;21599;-53
2021/03/24 00:34:15;;;;;;;10.18;7.72;;;;;;;0.65;57.16;94300.13;1757462;80;21140;-54
2021/03/24 00:36:43;;;;;;;12.23;7.78;;;;;;;0.72;57.01;94306.06;1757078;81;21122;-52
2021/03/24 00:39:16;;;;;;;17.55;11.78;;;;;;;0.70;56.94;94305.13;1763343;81;21085;-54
2021/03/24 00:41:41;;;;;;;13.18;11.15;;;;;;;0.74;56.96;94300.45;1709485;82;21475;-54
2021/03/24 00:44:09;;;;;;;10.65;8.45;;;;;;;0.76;56.97;94299.47;1693045;84;21328;-51
2021/03/24 00:46:37;;;;;;;7.47;6.62;;;;;;;0.78;56.20;94322.85;1729988;82;21132;-53
2021/03/24 00:49:05;;;;;;;8.40;6.42;;;;;;;0.63;54.20;94307.84;1698513;83;21144;-53
2021/03/24 00:51:34;;;;;;;8.53;7.08;;;;;;;0.45;54.70;94312.58;1705197;83;21132;-53
2021/03/24 00:54:02;;;;;;;8.48;6.97;;;;;;;0.38;55.32;94320.73;1729620;82;21393;-54
2021/03/24 00:56:31;;;;;;;8.38;7.35;;;;;;;0.34;55.13;94321.33;1734739;82;21163;-53
2021/03/24 00:58:59;;;;;;;7.83;6.87;;;;;;;0.18;55.59;94330.47;1703892;83;21107;-54
2021/03/24 01:01:27;;;;;;;8.00;6.67;;;;;;;0.10;55.84;94326.82;1771693;80;21056;-52
2021/03/24 01:03:55;;;;;;;9.00;7.22;;;;;;;0.06;56.40;94338.23;1775380;80;21063;-52
2021/03/24 01:06:23;;;;;;;7.30;6.65;;;;;;;0.09;56.64;94332.83;1765099;80;21387;-54
2021/03/24 01:08:57;;;;;;;8.63;7.42;;;;;;;0.10;56.62;94338.98;1758226;80;21598;-53
2021/03/24 01:11:25;;;;;;;11.75;8.00;;;;;;;0.09;56.05;94328.77;1773991;80;21123;-53
2021/03/24 01:13:54;;;;;;;11.68;8.55;;;;;;;0.06;56.22;94340.94;1779576;80;21139;-53
2021/03/24 01:16:23;;;;;;;10.23;8.45;;;;;;;0.10;56.44;94341.12;1768290;80;21100;-53
2021/03/24 01:18:51;;;;;;;10.75;8.00;;;;;;;0.20;56.50;94345.72;1762576;80;21219;-53
2021/03/24 01:21:19;;;;;;;50.17;33.30;;;;;;;0.24;57.09;94356.53;1775185;80;22064;-52
2021/03/24 01:23:48;;;;;;;20.32;14.53;;;;;;;0.21;57.06;94347.86;1761125;80;21075;-52
2021/03/24 01:26:18;;;;;;;14.03;10.23;;;;;;;0.32;56.81;94344.52;1754321;80;21154;-55
2021/03/24 01:28:45;;;;;;;8.33;7.47;;;;;;;0.37;56.81;94339.48;1759442;80;21074;-53
2021/03/24 01:31:13;;;;;;;8.18;7.35;;;;;;;0.34;56.23;94346.25;1776910;80;21360;-52
2021/03/24 01:33:41;;;;;;;7.75;6.83;;;;;;;0.23;55.98;94344.92;1752121;80;21486;-53
2021/03/24 01:36:10;;;;;;;10.35;7.97;;;;;;;0.21;56.44;94349.96;1766751;80;21151;-52
2021/03/24 01:38:39;;;;;;;17.07;12.88;;;;;;;0.21;56.85;94348.61;1756137;80;21509;-52
2021/03/24 01:41:08;;;;;;;17.35;11.78;;;;;;;0.23;56.90;94348.98;1702199;80;21064;-53
2021/03/24 01:43:37;;;;;;;15.28;10.00;;;;;;;0.32;56.50;94350.71;1755269;80;22301;-52
2021/03/24 01:46:26;;;;;;;27.15;15.85;;;;;;;0.33;56.59;94360.36;1762030;80;21140;-55
2021/03/24 01:49:16;;;;;;;11.65;8.38;;;;;;;0.27;57.16;94358.45;1726815;82;21660;-54
2021/03/24 01:51:49;;;;;;;11.05;8.48;;;;;;;0.17;55.54;94361.37;1738563;80;21163;-51
2021/03/24 01:54:23;;;;;;;10.82;7.85;;;;;;;0.08;55.45;94356.19;1750334;80;21111;-53
2021/03/24 01:56:54;;;;;;;;;;;;;;;0.09;55.34;94359.86;1765682;80;21667;-52
2021/03/24 01:59:24;;;;;;;8.67;7.57;;;;;;;0.04;55.41;94354.83;1756369;80;20223;-51
2021/03/24 02:01:54;;;;;;;7.22;6.58;;;;;;;-0.14;55.84;94351.20;1765123;80;21483;-53
2021/03/24 02:04:23;;;;;;;8.28;7.00;;;;;;;-0.14;55.99;94363.36;1759312;80;21484;-53
2021/03/24 02:06:59;;;;;;;9.83;8.30;;;;;;;-0.14;55.83;94356.61;1760865;80;21269;-53
2021/03/24 02:09:49;;;;;;;11.78;7.70;;;;;;;-0.26;56.21;94367.24;1776761;80;21155;-54
2021/03/24 02:12:25;;;;;;;14.65;9.18;;;;;;;-0.26;55.70;94367.84;1740546;80;21191;-53
2021/03/24 02:15:11;;;;;;;14.98;8.95;;;;;;;-0.27;55.47;94363.56;1751861;80;21148;-52
2021/03/24 02:17:43;;;;;;;12.80;9.40;;;;;;;-0.40;55.54;94370.54;1757616;80;21136;-53
2021/03/24 02:20:21;;;;;;;20.15;12.75;;;;;;;-0.53;55.97;94374.22;1763268;80;21194;-53
2021/03/24 02:22:53;;;;;;;13.65;10.10;;;;;;;-0.65;56.45;94381.34;1759107;80;21391;-51
2021/03/24 02:25:42;;;;;;;14.07;10.17;;;;;;;-0.84;57.17;94383.62;1715439;82;21591;-53
2021/03/24 02:28:17;;;;;;;9.10;8.20;;;;;;;-0.73;57.16;94377.66;1846256;77;22743;-53
2021/03/24 02:30:48;;;;;;;17.30;11.00;;;;;;;-0.84;56.63;94387.67;1823775;78;20918;-52
2021/03/24 02:33:33;;;;;;;26.87;19.35;;;;;;;-0.89;56.71;94384.00;1823772;78;22364;-53
2021/03/24 02:36:06;;;;;;;23.57;15.30;;;;;;;-0.87;56.53;94395.19;1823665;78;21013;-52
2021/03/24 02:38:37;;;;;;;35.70;21.17;;;;;;;-0.98;56.78;94390.36;1823824;78;21128;-53
2021/03/24 02:41:05;;;;;;;22.17;13.62;;;;;;;-1.05;57.03;94389.77;1823765;78;21057;-53
2021/03/24 02:43:34;;;;;;;20.12;13.38;;;;;;;-1.06;56.99;94393.63;1823788;78;20935;-52
2021/03/24 02:46:04;;;;;;;17.55;10.98;;;;;;;-1.10;57.00;94401.50;1823706;78;21368;-52
2021/03/24 02:48:36;;;;;;;12.10;8.70;;;;;;;-1.20;57.03;94396.84;1794614;78;20986;-52
2021/03/24 02:51:08;;;;;;;22.60;12.65;;;;;;;-1.32;57.14;94402.59;1823768;78;21188;-52
2021/03/24 02:53:38;;;;;;;9.38;7.33;;;;;;;-1.40;57.23;94401.01;1823906;78;21470;-52
2021/03/24 02:56:08;;;;;;;13.50;8.40;;;;;;;-1.52;56.34;94408.87;1800387;78;21080;-54
2021/03/24 02:58:36;;;;;;;37.48;18.87;;;;;;;-1.62;56.62;94404.22;1791366;80;21268;-59
2021/03/24 03:01:08;;;;;;;72.12;32.15;;;;;;;-1.56;56.92;94412.13;1791265;80;21136;-54
2021/03/24 03:03:39;;;;;;;20.43;13.85;;;;;;;-1.54;57.28;94403.67;1790938;80;21065;-52
2021/03/24 03:06:08;;;;;;;31.35;18.07;;;;;;;-1.48;57.50;94401.55;1791508;80;21045;-51
2021/03/24 03:08:47;;;;;;;34.05;17.73;;;;;;;-1.52;57.29;94413.50;1791358;80;21069;-56
2021/03/24 03:11:40;;;;;;;12.30;9.60;;;;;;;-1.63;57.64;94404.02;1791408;80;21104;-52
2021/03/24 03:14:16;;;;;;;21.20;14.63;;;;;;;-1.57;57.33;94410.58;1754093;80;21473;-52
2021/03/24 03:17:12;;;;;;;26.50;17.65;;;;;;;-1.39;56.92;94420.09;1791340;80;21056;-53
2021/03/24 03:19:46;;;;;;;21.15;14.85;;;;;;;-1.30;56.74;94425.91;1791412;80;21136;-54
2021/03/24 03:22:20;;;;;;;18.42;12.45;;;;;;;-1.29;56.72;94424.77;1768414;80;21652;-52
2021/03/24 03:24:59;;;;;;;16.87;11.12;;;;;;;-1.26;56.69;94429.39;1791399;79;21513;-53
2021/03/24 03:27:31;;;;;;;34.05;19.87;;;;;;;-1.25;56.57;94426.89;1791406;80;21091;-52
2021/03/24 03:30:00;;;;;;;23.32;14.20;;;;;;;-1.32;56.54;94434.97;1791955;80;21067;-54
2021/03/24 03:32:28;;;;;;;26.97;15.48;;;;;;;-1.52;56.69;94422.94;1791779;80;21545;-54
2021/03/24 03:35:04;;;;;;;21.82;14.65;;;;;;;-1.54;56.69;94431.98;1791969;80;21477;-53
2021/03/24 03:37:32;;;;;;;26.65;17.50;;;;;;;-1.61;56.91;94436.77;1791893;80;22116;-55
2021/03/24 03:40:00;;;;;;;16.00;12.70;;;;;;;-1.62;56.45;94439.83;1764862;80;21175;-54
2021/03/24 03:42:28;;;;;;;17.98;11.88;;;;;;;-1.74;56.50;94438.78;1791259;80;21504;-53
2021/03/24 03:44:56;;;;;;;44.53;18.70;;;;;;;-1.83;57.27;94454.53;1791183;80;21076;-53
2021/03/24 03:47:24;;;;;;;23.57;11.75;;;;;;;-1.92;57.62;94449.28;1791332;80;21081;-55
2021/03/24 03:49:52;;;;;;;28.98;14.07;;;;;;;-2.08;57.72;94444.18;1791260;79;21266;-54
2021/03/24 03:53:04;;;;;;;27.42;16.25;;;;;;;-2.13;58.49;94447.20;1791201;80;21180;-54
2021/03/24 03:55:54;;;;;;;23.98;13.22;;;;;;;-2.02;58.63;94456.14;1728894;81;21166;-55
2021/03/24 03:58:47;;;;;;;27.25;13.30;;;;;;;-1.93;58.29;94456.58;1694244;84;21621;-54
2021/03/24 04:01:27;;;;;;;28.87;13.88;;;;;;;-1.79;57.90;94466.11;1719901;83;26942;-54
2021/03/24 04:04:37;;;;;;;24.40;11.33;;;;;;;-1.73;57.73;94455.19;1735246;82;21210;-54
2021/03/24 04:07:29;;;;;;;28.45;13.85;;;;;;;-1.66;57.72;94461.95;1735308;82;21547;-56
2021/03/24 04:09:57;;;;;;;37.55;18.65;;;;;;;-1.60;57.92;94457.75;1735244;82;21487;-55
2021/03/24 04:12:27;;;;;;;21.02;12.82;;;;;;;-1.57;58.04;94459.69;1735263;82;21164;-53
2021/03/24 04:14:55;;;;;;;28.55;13.55;;;;;;;-1.64;58.16;94463.14;1735386;82;21099;-54
2021/03/24 04:17:30;;;;;;;33.58;15.80;;;;;;;-1.67;58.14;94473.89;1735261;82;21216;-53
2021/03/24 04:20:00;;;;;;;17.25;10.80;;;;;;;-1.65;58.33;94471.00;1735238;82;21185;-54
2021/03/24 04:22:30;;;;;;;8.03;7.17;;;;;;;-1.57;57.43;94469.91;1735283;82;21539;-54
2021/03/24 04:25:00;;;;;;;12.73;9.65;;;;;;;-1.49;56.53;94462.04;1732897;82;21162;-53
2021/03/24 04:27:32;;;;;;;18.48;12.55;;;;;;;-1.28;56.45;94470.82;1729934;82;21092;-53
2021/03/24 04:30:10;;;;;;;16.33;9.70;;;;;;;-1.05;56.17;94479.39;1717371;82;21208;-52
2021/03/24 04:32:38;;;;;;;12.18;8.85;;;;;;;-0.94;56.04;94484.27;1745378;82;21109;-53
2021/03/24 04:35:08;;;;;;;15.23;9.70;;;;;;;-0.99;56.59;94478.65;1745208;82;21082;-54
2021/03/24 04:37:43;;;;;;;14.30;9.75;;;;;;;-1.06;57.46;94487.30;1745257;82;21113;-53
2021/03/24 04:40:30;;;;;;;21.95;11.45;;;;;;;-0.97;57.81;94488.48;1745404;81;21564;-53
2021/03/24 04:43:03;;;;;;;20.97;11.43;;;;;;;-0.91;57.74;94486.98;1782664;80;21204;-55
2021/03/24 04:45:57;;;;;;;34.35;16.52;;;;;;;-0.80;57.51;94477.56;1781544;80;21136;-54
2021/03/24 04:48:35;;;;;;;25.12;14.70;;;;;;;-0.79;56.43;94488.56;1752409;80;21465;-55
2021/03/24 04:51:09;;;;;;;18.10;12.03;;;;;;;-0.74;55.35;94492.23;1782604;80;21133;-54
2021/03/24 04:53:45;;;;;;;30.32;18.65;;;;;;;-0.66;54.60;94484.33;1782237;80;21089;-54
2021/03/24 04:56:15;;;;;;;10.30;8.20;;;;;;;-0.46;54.70;94488.23;1782633;79;22389;-52
2021/03/24 04:58:47;;;;;;;9.58;7.22;;;;;;;-0.25;53.50;94482.87;1752954;80;21578;-53
2021/03/24 05:01:32;;;;;;;6.60;5.87;;;;;;;-0.14;53.46;94491.75;1782896;80;21085;-54
2021/03/24 05:04:08;;;;;;;5.87;5.35;;;;;;;-0.12;52.86;94490.78;1782914;80;21144;-54
2021/03/24 05:06:40;;;;;;;8.73;7.08;;;;;;;-0.17;52.81;94496.02;1782722;80;21152;-53
2021/03/24 05:09:09;;;;;;;19.20;12.88;;;;;;;-0.29;53.24;94498.30;1782614;80;21485;-52
2021/03/24 05:12:07;;;;;;;29.37;16.82;;;;;;;-0.36;53.02;94496.38;1782647;80;21089;-53
2021/03/24 05:14:57;;;;;;;13.72;8.75;;;;;;;-0.30;52.83;94496.19;1782670;80;21072;-54
2021/03/24 05:17:33;;;;;;;7.95;7.10;;;;;;;-0.21;52.82;94503.92;1782613;80;21069;-54
2021/03/24 05:20:07;;;;;;;8.10;7.20;;;;;;;-0.15;52.89;94515.89;1782659;80;21132;-53
2021/03/24 05:22:45;;;;;;;7.30;5.87;;;;;;;-0.04;53.10;94515.33;1782767;80;22261;-53
2021/03/24 05:25:23;;;;;;;8.85;6.75;;;;;;;0.01;52.54;94521.89;1782532;80;21612;-54
2021/03/24 05:27:58;;;;;;;8.05;5.65;;;;;;;0.10;52.29;94519.59;1786053;80;21172;-53
2021/03/24 05:30:30;;;;;;;30.92;22.60;;;;;;;0.23;51.87;94525.38;1734585;80;21065;-54
2021/03/24 05:33:14;;;;;;;28.83;15.60;;;;;;;0.28;51.90;94524.42;1791493;80;21065;-53
2021/03/24 05:35:46;;;;;;;16.15;9.63;;;;;;;0.30;51.71;94523.45;1789914;80;21199;-54
2021/03/24 05:38:19;;;;;;;13.00;10.63;;;;;;;0.44;51.65;94524.77;1791000;80;21108;-55
2021/03/24 05:41:01;;;;;;;15.28;10.00;;;;;;;0.56;51.37;94525.73;1791092;80;21553;-53
2021/03/24 05:43:58;;;;;;;27.45;13.85;;;;;;;0.67;51.34;94535.18;1754579;80;21509;-54
2021/03/24 05:47:04;;;;;;;7.15;6.40;;;;;;;0.71;51.03;94534.59;1790254;80;21129;-54
2021/03/24 05:50:00;;;;;;;14.00;9.18;;;;;;;0.74;50.83;94538.66;1790918;80;21351;-53
2021/03/24 05:52:38;;;;;;;36.83;19.77;;;;;;;0.92;50.36;94534.57;1790441;80;21160;-55
2021/03/24 05:55:29;;;;;;;55.08;25.48;;;;;;;0.87;50.37;94538.44;1790156;79;21093;-57
2021/03/24 05:58:47;;;;;;;19.48;12.30;;;;;;;0.86;50.82;94545.02;1790244;80;21176;-58
2021/03/24 06:01:19;;;;;;;21.23;13.93;;;;;;;0.83;50.47;94540.95;1790195;80;21179;-62
2021/03/24 06:04:14;;;;;;;;;;;;;;;0.92;50.67;94545.40;1792982;79;21360;-58
2021/03/24 06:07:21;;;;;;;42.17;18.50;;;;;;;1.15;49.69;94542.41;1789978;80;20293;-56
2021/03/24 06:10:35;;;;;;;20.25;11.30;;;;;;;1.19;49.63;94555.38;1790213;79;21148;-55
2021/03/24 06:13:10;;;;;;;25.25;15.25;;;;;;;1.21;49.42;94547.63;1764346;80;21175;-55
2021/03/24 06:16:12;;;;;;;16.27;10.75;;;;;;;1.16;49.19;94545.91;1739160;80;21181;-55
2021/03/24 06:19:11;;;;;;;13.53;8.35;;;;;;;1.23;49.33;94546.66;1782200;80;21398;-63
2021/03/24 06:22:24;;;;;;;10.63;8.15;;;;;;;1.39;49.05;94553.75;1789996;80;21196;-58
2021/03/24 06:25:14;;;;;;;8.25;6.72;;;;;;;1.62;48.28;94550.53;1787149;79;21085;-58
2021/03/24 06:27:56;;;;;;;10.43;8.40;;;;;;;1.65;48.14;94554.59;1774951;78;21180;-56
2021/03/24 06:30:34;;;;;;;9.83;6.90;;;;;;;1.62;48.51;94558.09;1757837;79;21485;-57
2021/03/24 06:33:31;;;;;;;9.23;7.62;;;;;;;1.70;48.89;94561.55;1776246;79;21201;-59
2021/03/24 06:36:40;;;;;;;8.43;5.62;;;;;;;1.85;48.17;94565.14;1778247;79;21204;-56
2021/03/24 06:40:00;;;;;;;9.45;7.12;;;;;;;2.06;46.93;94573.94;1789091;79;21217;-59
2021/03/24 06:43:13;;;;;;;6.70;6.03;;;;;;;2.04;47.09;94571.42;1760534;80;21107;-55
2021/03/24 06:46:06;;;;;;;8.73;7.03;;;;;;;2.07;46.95;94570.05;1778931;79;21118;-59
2021/03/24 06:48:57;;;;;;;7.17;5.47;;;;;;;2.00;46.89;94574.74;1785636;79;21177;-56
2021/03/24 06:52:10;;;;;;;6.50;5.30;;;;;;;2.03;46.70;94577.45;1772654;79;21195;-57
2021/03/24 06:55:01;;;;;;;9.33;5.80;;;;;;;2.08;46.80;94578.95;1710747;82;21200;-61
2021/03/24 06:57:57;;;;;;;7.60;6.47;;;;;;;2.07;46.22;94572.77;1781309;79;21192;-59
2021/03/24 07:01:10;;;;;;;11.40;7.50;;;;;;;2.21;46.56;94577.31;1784629;79;21182;-59
2021/03/24 07:04:17;;;;;;;17.25;9.58;;;;;;;2.44;46.06;94578.89;1780008;79;21215;-57
2021/03/24 07:07:02;;;;;;;18.90;10.58;;;;;;;2.60;45.35;94576.44;1738325;79;21163;-56
2021/03/24 07:09:38;;;;;;;22.52;14.73;;;;;;;2.86;45.15;94577.20;1782931;79;21263;-65
2021/03/24 07:12:30;;;;;;;11.80;7.62;;;;;;;3.01;44.37;94575.88;1779558;79;21161;-61
2021/03/24 07:15:18;;;;;;;9.70;7.25;;;;;;;2.97;44.71;94584.65;1775182;79;21099;-55
2021/03/24 07:18:27;;;;;;;10.60;8.13;;;;;;;3.05;44.42;94582.07;1778736;79;21382;-63
2021/03/24 07:21:26;;;;;;;12.63;9.33;;;;;;;3.16;44.25;94580.78;1693286;83;21303;-58
2021/03/24 07:24:24;;;;;;;13.65;10.43;;;;;;;3.24;44.24;94581.48;1774398;79;21615;-61
2021/03/24 07:26:58;;;;;;;9.95;7.87;;;;;;;3.38;44.54;94589.50;1710871;79;21268;-59
2021/03/24 07:29:40;;;;;;;11.38;8.75;;;;;;;3.74;43.85;94584.59;1779419;79;21195;-58
2021/03/24 07:32:45;;;;;;;6.75;6.03;;;;;;;4.03;42.44;94585.19;1776782;79;21376;-55
2021/03/24 07:35:57;;;;;;;9.75;8.20;;;;;;;4.17;41.51;94585.00;1782901;79;21609;-64
2021/03/24 07:38:41;;;;;;;17.40;10.90;;;;;;;4.10;42.83;94587.83;1780745;79;21159;-61
2021/03/24 07:41:51;;;;;;;10.65;7.62;;;;;;;4.05;43.09;94595.06;1775769;79;21468;-62
2021/03/24 07:44:49;;;;;;;7.22;6.20;;;;;;;4.17;41.70;94598.61;1777494;79;21117;-58
2021/03/24 07:48:03;;;;;;;8.00;5.53;;;;;;;4.17;41.23;94610.86;1766532;79;21952;-62
2021/03/24 07:50:43;;;;;;;21.05;12.07;;;;;;;4.21;41.32;94598.56;1772785;79;21250;-64
2021/03/24 07:53:43;;;;;;;9.90;8.05;;;;;;;4.13;41.96;94608.78;1738346;79;21147;-57
2021/03/24 07:56:32;;;;;;;9.13;5.95;;;;;;;4.21;41.56;94614.30;1785925;79;21107;-55
2021/03/24 07:59:24;;;;;;;11.48;8.05;;;;;;;4.09;41.53;94617.55;1749356;79;21190;-64
2021/03/24 08:02:35;;;;;;;24.47;13.83;;;;;;;4.08;42.75;94624.19;1772720;79;22341;-60
2021/03/24 08:05:53;;;;;;;6.60;5.95;;;;;;;4.12;41.90;94625.51;1751753;80;21221;-57
2021/03/24 08:08:30;;;;;;;6.60;5.85;;;;;;;4.32;41.47;94627.19;1777803;79;21212;-68
2021/03/24 08:11:20;;;;;;;5.67;4.60;;;;;;;4.32;42.18;94630.48;1769173;79;21205;-57
2021/03/24 08:14:22;;;;;;;39.53;20.48;;;;;;;4.38;41.29;94632.34;1774277;79;21111;-57
2021/03/24 08:17:18;;;;;;;6.87;6.08;;;;;;;4.49;40.33;94630.83;1775361;79;21158;-53
2021/03/24 08:20:29;;;;;;;12.28;7.42;;;;;;;4.32;40.31;94629.91;1754623;79;22274;-66
2021/03/24 08:23:15;;;;;;;13.58;6.47;;;;;;;4.25;41.60;94633.31;1750270;79;21157;-61
2021/03/24 08:26:06;;;;;;;9.20;6.75;;;;;;;4.11;40.83;94627.47;1794956;79;21196;-65
2021/03/24 08:28:49;;;;;;;11.35;9.85;;;;;;;3.89;41.58;94639.78;1735318;81;21173;-64
2021/03/24 08:31:55;;;;;;;14.00;8.83;;;;;;;3.81;42.15;94641.05;1769892;79;21161;-57
2021/03/24 08:34:37;;;;;;;60.58;30.90;;;;;;;3.80;41.08;94642.23;1766104;79;21221;-61
2021/03/24 08:37:49;;;;;;;34.33;21.33;;;;;;;3.60;40.81;94628.27;1770318;79;21826;-56
2021/03/24 08:40:52;;;;;;;20.95;14.07;;;;;;;3.48;41.59;94641.80;1778232;79;21143;-58
2021/03/24 08:43:40;;;;;;;7.65;6.60;;;;;;;3.61;41.79;94637.39;1779340;79;21217;-57
2021/03/24 08:46:29;;;;;;;24.65;17.42;;;;;;;3.75;41.66;94642.69;1776051;80;21981;-61
2021/03/24 08:49:12;;;;;;;9.85;7.60;;;;;;;3.99;40.29;94645.70;1776619;79;21218;-62
2021/03/24 08:51:49;;;;;;;9.55;7.17;;;;;;;4.38;39.82;94627.51;1787425;78;21670;-60
2021/03/24 08:54:43;;;;;;;7.17;5.80;;;;;;;4.63;40.19;94636.84;1765776;79;21261;-62
2021/03/24 08:57:29;;;;;;;;;;;;;;;4.92;40.39;94633.09;1778051;79;21188;-64
2021/03/24 09:00:46;;;;;;;24.77;18.48;;;;;;;5.25;38.19;94631.58;1712795;79;21228;-64
2021/03/24 09:03:42;;;;;;;44.00;27.40;;;;;;;5.21;38.50;94630.88;1746960;80;21252;-61
2021/03/24 09:06:46;;;;;;;12.23;8.55;;;;;;;4.92;38.33;94637.17;1710329;81;21639;-57
2021/03/24 09:09:38;;;;;;;10.65;9.18;;;;;;;5.00;39.22;94639.38;1691356;82;21162;-62
2021/03/24 09:12:30;;;;;;;8.48;6.20;;;;;;;5.32;39.07;94624.62;1777062;79;21140;-64
2021/03/24 09:15:18;;;;;;;7.90;6.30;;;;;;;5.37;37.83;94611.86;1723570;80;21207;-62
2021/03/24 09:18:11;;;;;;;12.55;8.98;;;;;;;5.16;38.01;94633.30;1791530;79;21497;-59
2021/03/24 09:21:00;;;;;;;9.65;7.40;;;;;;;5.10;39.12;94635.72;1775870;79;21267;-58
2021/03/24 09:24:00;;;;;;;7.75;7.00;;;;;;;5.30;39.54;94622.91;1762491;79;21182;-58
2021/03/24 09:27:06;;;;;;;6.37;5.42;;;;;;;5.45;39.52;94632.39;1657808;84;21732;-59
2021/03/24 09:30:06;;;;;;;6.67;6.08;;;;;;;5.29;37.68;94635.01;1658798;84;21453;-62
2021/03/24 09:33:04;;;;;;;8.28;6.00;;;;;;;5.05;38.80;94630.75;1702570;82;21077;-57
2021/03/24 09:36:08;;;;;;;5.55;5.00;;;;;;;5.20;38.61;94638.09;1750075;80;21502;-60
2021/03/24 09:38:37;;;;;;;10.98;9.98;;;;;;;5.34;38.42;94633.95;1667440;84;21691;-60
2021/03/24 09:41:29;;;;;;;10.15;6.70;;;;;;;5.56;38.33;94631.01;1673476;84;21258;-58
2021/03/24 09:44:03;;;;;;;7.20;6.42;;;;;;;5.66;38.75;94634.73;1701716;81;21382;-54
2021/03/24 09:46:49;;;;;;;5.85;5.25;;;;;;;5.72;36.87;94630.31;1709742;81;22186;-64
2021/03/24 09:49:40;;;;;;;6.92;6.22;;;;;;;5.75;36.59;94627.53;1769892;80;21223;-60
2021/03/24 09:52:32;;;;;;;7.22;5.35;;;;;;;5.68;37.40;94639.95;1750949;80;21600;-65
2021/03/24 09:55:21;;;;;;;12.05;6.95;;;;;;;5.69;36.91;94629.22;1727797;80;21502;-61
2021/03/24 09:58:19;;;;;;;8.95;6.35;;;;;;;5.70;37.04;94632.70;1718817;81;21394;-60
2021/03/24 10:01:11;;;;;;;11.70;10.58;;;;;;;5.73;36.20;94620.94;1676190;84;21170;-58
2021/03/24 10:04:20;;;;;;;11.40;8.73;;;;;;;5.66;36.74;94620.50;1739310;81;21228;-70
2021/03/24 10:07:02;;;;;;;8.85;6.37;;;;;;;5.70;37.07;94629.39;1716167;81;21197;-64
2021/03/24 10:09:46;;;;;;;8.35;7.12;;;;;;;5.64;37.11;94631.05;1730374;81;22259;-61
2021/03/24 10:12:33;;;;;;;11.50;10.05;;;;;;;5.51;37.34;94627.41;1714481;81;21265;-67
2021/03/24 10:15:28;;;;;;;7.80;7.00;;;;;;;5.33;37.27;94626.95;1720267;81;22499;-63
2021/03/24 10:18:27;;;;;;;7.60;6.80;;;;;;;5.13;37.75;94629.44;1708553;81;21119;-60
2021/03/24 10:21:08;;;;;;;10.20;8.00;;;;;;;4.97;37.46;94626.58;1659638;82;21197;-61
2021/03/24 10:23:54;;;;;;;6.35;5.65;;;;;;;4.90;37.61;94626.70;1716952;81;21139;-63
2021/03/24 10:26:33;;;;;;;8.98;6.60;;;;;;;4.86;37.99;94625.21;1717923;81;21190;-61
2021/03/24 10:29:10;;;;;;;8.25;7.45;;;;;;;4.87;37.46;94627.54;1735719;81;21193;-66
2021/03/24 10:31:45;;;;;;;7.03;5.78;;;;;;;4.92;38.02;94620.25;1780609;79;21200;-60
2021/03/24 10:34:30;;;;;;;6.80;6.10;;;;;;;4.90;37.18;94629.43;1762520;79;21160;-67
2021/03/24 10:37:24;;;;;;;6.65;5.85;;;;;;;5.13;37.92;94629.44;1779879;79;21191;-62
2021/03/24 10:40:14;;;;;;;6.15;5.65;;;;;;;5.40;37.11;94620.00;1767352;79;21427;-56
2021/03/24 10:43:18;;;;;;;9.95;5.97;;;;;;;5.53;37.00;94609.23;1768782;79;21588;-57
2021/03/24 10:45:53;;;;;;;7.85;6.20;;;;;;;5.62;36.58;94617.66;1766762;79;21206;-59
2021/03/24 10:48:26;;;;;;;6.28;5.25;;;;;;;6.13;35.82;94614.34;1789325;79;22258;-58
2021/03/24 10:51:09;;;;;;;8.63;7.22;;;;;;;6.17;35.70;94610.33;1785090;79;21099;-58
2021/03/24 10:53:37;;;;;;;;;;;;;;;6.03;36.26;94607.91;1778716;79;21211;-57
2021/03/24 10:56:27;;;;;;;11.28;10.08;;;;;;;5.90;37.37;94627.47;1777381;79;20254;-60
2021/03/24 10:59:28;;;;;;;9.75;8.78;;;;;;;5.87;36.78;94619.34;1777320;79;21188;-60
2021/03/24 11:02:09;;;;;;;8.43;5.47;;;;;;;5.96;36.48;94623.66;1771668;79;21174;-65
2021/03/24 11:04:59;;;;;;;11.08;9.58;;;;;;;5.89;36.19;94619.69;1770752;79;21541;-64
2021/03/24 11:08:07;;;;;;;14.03;12.45;;;;;;;5.80;36.29;94624.34;1778936;79;21144;-60
2021/03/24 11:10:56;;;;;;;5.87;5.30;;;;;;;5.45;36.78;94616.78;1694861;82;21612;-57
2021/03/24 11:13:56;;;;;;;5.92;5.42;;;;;;;6.00;36.81;94619.64;1771473;79;21638;-62
2021/03/24 11:16:40;;;;;;;6.78;6.08;;;;;;;6.71;35.53;94614.82;1768958;79;21102;-57
2021/03/24 11:19:39;;;;;;;8.55;7.00;;;;;;;6.90;34.79;94610.63;1797924;77;22725;-60
2021/03/24 11:22:23;;;;;;;7.40;6.70;;;;;;;7.08;35.53;94617.06;1806982;78;21198;-63
2021/03/24 11:25:06;;;;;;;7.40;4.42;;;;;;;7.87;34.33;94615.56;1792331;78;21135;-59
2021/03/24 11:27:44;;;;;;;15.88;13.60;;;;;;;8.59;32.17;94615.89;1781047;80;21139;-59
2021/03/24 11:30:38;;;;;;;4.00;3.60;;;;;;;8.95;31.59;94613.77;1765453;80;21167;-61
2021/03/24 11:33:37;;;;;;;4.17;3.17;;;;;;;9.14;30.71;94592.78;1754256;81;21606;-58
2021/03/24 11:36:24;;;;;;;6.60;3.98;;;;;;;9.31;31.33;94595.55;1769497;80;21676;-59
2021/03/24 11:39:06;;;;;;;5.42;4.08;;;;;;;9.89;30.70;94602.19;1711723;81;21292;-59
2021/03/24 11:41:38;;;;;;;4.45;3.62;;;;;;;10.02;29.63;94599.56;1797699;79;21149;-60
2021/03/24 11:44:16;;;;;;;25.45;10.25;;;;;;;9.73;29.33;94605.09;1797707;79;21225;-59
2021/03/24 11:46:51;;;;;;;6.62;4.53;;;;;;;9.64;30.18;94600.91;1797549;79;21119;-57
2021/03/24 11:49:50;;;;;;;8.43;7.00;;;;;;;10.06;29.94;94593.95;1794230;78;21162;-59
2021/03/24 11:52:47;;;;;;;4.00;3.27;;;;;;;10.81;29.87;94610.15;1793667;78;22025;-57
2021/03/24 11:56:00;;;;;;;7.15;4.55;;;;;;;11.04;28.68;94608.88;1802692;78;21267;-60
2021/03/24 11:58:42;;;;;;;10.53;2.75;;;;;;;11.32;27.23;94600.88;1759920;80;21198;-58
2021/03/24 12:01:24;;;;;;;9.53;3.98;;;;;;;11.60;27.77;94608.00;1768547;80;21267;-59
2021/03/24 12:04:26;;;;;;;16.15;4.25;;;;;;;11.46;26.87;94605.20;1873982;75;22438;-60
2021/03/24 12:07:18;;;;;;;8.38;4.40;;;;;;;11.53;26.92;94595.25;1812430;77;21179;-58
2021/03/24 12:09:46;;;;;;;4.12;3.50;;;;;;;11.57;26.37;94598.65;1772019;77;21365;-62
2021/03/24 12:12:21;;;;;;;3.02;2.52;;;;;;;11.38;27.79;94599.80;1820962;77;21015;-60
2021/03/24 12:15:28;;;;;;;7.15;3.30;;;;;;;11.79;26.09;94600.69;1830059;76;21126;-58
2021/03/24 12:18:12;;;;;;;6.53;3.10;;;;;;;11.67;26.74;94601.59;1816324;78;21198;-61
2021/03/24 12:20:58;;;;;;;6.67;4.58;;;;;;;11.37;27.65;94598.27;1815873;77;21670;-57
2021/03/24 12:23:32;;;;;;;6.58;4.35;;;;;;;11.13;27.43;94611.06;1813104;77;21172;-58
2021/03/24 12:26:02;;;;;;;3.90;3.52;;;;;;;10.95;28.29;94610.98;1819251;76;21691;-57
2021/03/24 12:28:42;;;;;;;5.00;3.67;;;;;;;10.68;28.14;94607.34;1819582;77;21225;-59
2021/03/24 12:31:17;;;;;;;5.08;4.58;;;;;;;10.58;27.78;94613.24;1816593;77;21197;-62
2021/03/24 12:33:52;;;;;;;;;;;;;;;11.05;29.82;94622.80;1837546;76;21190;-64
2021/03/24 12:36:26;;;;;;;5.53;4.60;;;;;;;11.79;27.25;94610.94;1822291;76;20276;-55
2021/03/24 12:39:03;;;;;;;3.60;2.83;;;;;;;11.47;26.74;94619.13;1829126;76;21122;-58
2021/03/24 12:41:40;;;;;;;4.22;3.05;;;;;;;10.69;27.65;94610.25;1791112;78;22184;-58
2021/03/24 12:44:30;;;;;;;3.50;2.62;;;;;;;10.51;28.19;94614.89;1813067;77;21175;-60
2021/03/24 12:47:05;;;;;;;5.07;3.53;;;;;;;11.19;27.65;94617.50;1818443;76;21209;-61